Time;durP1;ratioP1;P1;durP2;ratioP2;P2;SDS_P1;SDS_P2;PMS_P1;PMS_P2;Temp;Humidity;BMP_temperature;BMP_pressure;BME280_temperature;BME280_humidity;BME280_pressure;Samples;Min_cycle;Max_cycle;Signal;HPM_P1;HPM_P2
2023/09/07 00:00:49;;;;;;;0.17;0.08;;;17.80;99.90;;;;;;5107565;28;20371;-68
2023/09/07 00:03:15;;;;;;;0.10;0.00;;;17.70;99.90;;;;;;5128594;28;20487;-68
2023/09/07 00:05:41;;;;;;;0.30;0.10;;;17.80;99.90;;;;;;5108873;28;20121;-68
2023/09/07 00:08:07;;;;;;;0.70;0.20;;;17.70;99.90;;;;;;5108750;28;20135;-68
2023/09/07 00:10:36;;;;;;;0.10;0.10;;;17.70;99.90;;;;;;5108800;28;20538;-69
2023/09/07 00:13:03;;;;;;;0.20;0.10;;;17.60;99.90;;;;;;5127815;28;20035;-68
2023/09/07 00:15:29;;;;;;;0.50;0.30;;;17.60;99.90;;;;;;5113649;27;20486;-68
2023/09/07 00:17:56;;;;;;;0.10;0.03;;;17.50;99.90;;;;;;5131180;27;20039;-68
2023/09/07 00:20:23;;;;;;;0.75;0.25;;;17.60;99.90;;;;;;5112021;27;20066;-68
2023/09/07 00:22:49;;;;;;;0.57;0.10;;;17.50;99.90;;;;;;5113445;27;20603;-68
2023/09/07 00:25:14;;;;;;;0.30;0.10;;;17.60;99.90;;;;;;5127994;27;20059;-68
2023/09/07 00:27:40;;;;;;;0.60;0.20;;;17.50;99.90;;;;;;5113768;27;20042;-68
2023/09/07 00:30:09;;;;;;;0.30;0.10;;;17.50;99.90;;;;;;5133162;27;20051;-69
2023/09/07 00:32:37;;;;;;;0.20;0.10;;;17.50;99.90;;;;;;5132839;27;20129;-68
2023/09/07 00:35:03;;;;;;;0.20;0.10;;;17.40;99.90;;;;;;5112806;27;20054;-68
2023/09/07 00:37:29;;;;;;;0.43;0.20;;;17.40;99.90;;;;;;5113965;27;20494;-68
2023/09/07 00:39:54;;;;;;;0.20;0.10;;;17.40;99.90;;;;;;5113157;27;20261;-68
2023/09/07 00:42:20;;;;;;;0.13;0.03;;;17.40;99.90;;;;;;5131840;27;20050;-68
2023/09/07 00:44:47;;;;;;;0.20;0.20;;;17.40;99.90;;;;;;5129124;27;20100;-68
2023/09/07 00:47:14;;;;;;;0.22;0.10;;;17.30;99.90;;;;;;5131578;27;20115;-68
2023/09/07 00:49:40;;;;;;;0.10;0.00;;;17.30;99.90;;;;;;5129716;27;20111;-68
2023/09/07 00:52:08;;;;;;;0.30;0.10;;;17.20;99.90;;;;;;5113139;27;20095;-68
2023/09/07 00:54:34;;;;;;;2.42;0.20;;;17.20;99.90;;;;;;5131444;27;20043;-67
2023/09/07 00:57:00;;;;;;;0.85;0.15;;;17.20;99.90;;;;;;5112796;27;20115;-68
2023/09/07 00:59:26;;;;;;;0.45;0.13;;;17.20;99.90;;;;;;5093810;27;20045;-68
2023/09/07 01:01:51;;;;;;;0.57;0.20;;;17.20;99.90;;;;;;5111570;27;20252;-68
2023/09/07 01:04:17;;;;;;;1.15;0.15;;;17.20;99.90;;;;;;5104430;27;20400;-67
2023/09/07 01:06:55;;;;;;;1.45;0.30;;;17.10;99.90;;;;;;5113581;27;20035;-68
2023/09/07 01:09:24;;;;;;;0.80;0.20;;;17.20;99.90;;;;;;5110330;27;20035;-68
2023/09/07 01:11:50;;;;;;;0.85;0.20;;;17.20;99.90;;;;;;5107364;27;20546;-68
2023/09/07 01:14:17;;;;;;;0.17;0.10;;;17.10;99.90;;;;;;5129532;27;20051;-68
2023/09/07 01:16:43;;;;;;;0.47;0.30;;;17.10;99.90;;;;;;5111555;27;20043;-68
2023/09/07 01:19:09;;;;;;;0.30;0.10;;;17.10;99.90;;;;;;5112051;27;20082;-68
2023/09/07 01:21:39;;;;;;;0.30;0.10;;;17.10;99.90;;;;;;5128070;27;20035;-67
2023/09/07 01:24:10;;;;;;;0.10;0.00;;;17.00;99.90;;;;;;5111656;27;20408;-66
2023/09/07 01:26:39;;;;;;;0.08;0.00;;;17.00;99.90;;;;;;5129198;27;20118;-67
2023/09/07 01:29:08;;;;;;;0.00;0.00;;;17.00;99.90;;;;;;5112775;27;20038;-68
2023/09/07 01:31:38;;;;;;;0.50;0.15;;;16.90;99.90;;;;;;5129080;27;20094;-68
2023/09/07 01:34:04;;;;;;;1.00;0.10;;;16.90;99.90;;;;;;5128795;27;20505;-67
2023/09/07 01:36:30;;;;;;;0.57;0.22;;;16.90;99.90;;;;;;5129837;27;20046;-68
2023/09/07 01:38:56;;;;;;;0.45;0.10;;;16.90;99.90;;;;;;5131550;27;20028;-67
2023/09/07 01:41:22;;;;;;;0.20;0.10;;;16.80;99.90;;;;;;5110900;27;20334;-68
2023/09/07 01:43:48;;;;;;;0.28;0.10;;;16.80;99.90;;;;;;5130625;27;20039;-68
2023/09/07 01:46:14;;;;;;;0.32;0.20;;;16.80;99.90;;;;;;5110310;27;20563;-68
2023/09/07 01:48:42;;;;;;;0.10;0.10;;;16.80;99.90;;;;;;5112652;27;20127;-68
2023/09/07 01:51:07;;;;;;;0.45;0.20;;;16.70;99.90;;;;;;5127483;27;20054;-68
2023/09/07 01:53:33;;;;;;;0.10;0.00;;;16.70;99.90;;;;;;5131465;27;20379;-68
2023/09/07 01:55:59;;;;;;;0.30;0.13;;;16.70;99.90;;;;;;5127593;27;20113;-67
2023/09/07 01:58:25;;;;;;;0.35;0.13;;;16.70;99.90;;;;;;5111216;27;20039;-67
2023/09/07 02:00:56;;;;;;;0.10;0.10;;;16.60;99.90;;;;;;5108367;27;20054;-67
2023/09/07 02:03:22;;;;;;;0.00;0.00;;;16.60;99.90;;;;;;5108816;27;20043;-68
2023/09/07 02:05:47;;;;;;;0.52;0.30;;;16.60;99.90;;;;;;5129118;27;20479;-67
2023/09/07 02:08:13;;;;;;;0.15;0.10;;;16.60;99.90;;;;;;5127689;27;20043;-67
2023/09/07 02:10:39;;;;;;;0.77;0.35;;;16.60;99.90;;;;;;5108590;27;20043;-67
2023/09/07 02:13:05;;;;;;;0.40;0.20;;;16.50;99.90;;;;;;5131026;27;20055;-67
2023/09/07 02:15:31;;;;;;;0.93;0.20;;;16.50;99.90;;;;;;5092676;27;20523;-67
2023/09/07 02:17:56;;;;;;;0.60;0.20;;;16.50;99.90;;;;;;5108390;27;20107;-67
2023/09/07 02:20:22;;;;;;;0.80;0.10;;;16.50;99.90;;;;;;5108776;27;20045;-66
2023/09/07 02:22:48;;;;;;;0.20;0.10;;;16.40;99.90;;;;;;5110215;27;20509;-67
2023/09/07 02:25:14;;;;;;;0.38;0.10;;;16.40;99.90;;;;;;5129284;27;20039;-68
2023/09/07 02:27:40;;;;;;;0.20;0.20;;;16.40;99.90;;;;;;5130262;27;20046;-67
2023/09/07 02:30:07;;;;;;;0.77;0.25;;;16.40;99.90;;;;;;5129027;27;20046;-67
2023/09/07 02:32:33;;;;;;;0.05;0.05;;;16.40;99.90;;;;;;5128166;27;20495;-67
2023/09/07 02:34:58;;;;;;;0.30;0.10;;;16.40;99.90;;;;;;5128437;27;20038;-67
2023/09/07 02:37:24;;;;;;;1.25;0.20;;;16.40;99.90;;;;;;5110665;27;20054;-68
2023/09/07 02:39:50;;;;;;;0.30;0.00;;;16.40;99.90;;;;;;5090629;27;20471;-68
2023/09/07 02:42:16;;;;;;;0.30;0.20;;;16.40;99.90;;;;;;5111131;27;20039;-68
2023/09/07 02:44:41;;;;;;;0.10;0.10;;;16.40;99.90;;;;;;5108707;27;20370;-67
2023/09/07 02:47:07;;;;;;;0.50;0.20;;;16.40;99.90;;;;;;5093078;27;20411;-67
2023/09/07 02:49:33;;;;;;;0.10;0.10;;;16.40;99.90;;;;;;5125561;27;20398;-67
2023/09/07 02:51:59;;;;;;;0.03;0.00;;;16.40;99.90;;;;;;5129423;27;20031;-67
2023/09/07 02:54:24;;;;;;;0.45;0.10;;;16.40;99.90;;;;;;5111058;27;20230;-67
2023/09/07 02:56:50;;;;;;;0.00;0.00;;;16.30;99.90;;;;;;5126035;27;20103;-68
2023/09/07 02:59:16;;;;;;;0.20;0.13;;;16.30;99.90;;;;;;5127175;27;20483;-67
2023/09/07 03:01:41;;;;;;;0.05;0.00;;;16.30;99.90;;;;;;5129294;27;20028;-67
2023/09/07 03:04:07;;;;;;;0.15;0.10;;;16.20;99.90;;;;;;5110250;28;20406;-67
2023/09/07 03:06:33;;;;;;;0.30;0.10;;;16.20;99.90;;;;;;5127396;27;20035;-67
2023/09/07 03:08:59;;;;;;;0.32;0.10;;;16.20;99.90;;;;;;5109963;27;20493;-67
2023/09/07 03:11:25;;;;;;;0.20;0.17;;;16.20;99.90;;;;;;5108887;27;20351;-67
2023/09/07 03:13:52;;;;;;;0.40;0.20;;;16.20;99.90;;;;;;5126839;27;20054;-67
2023/09/07 03:16:18;;;;;;;0.35;0.10;;;16.20;99.90;;;;;;5124692;27;20155;-68
2023/09/07 03:18:43;;;;;;;0.85;0.20;;;16.20;99.90;;;;;;5107372;28;20117;-67
2023/09/07 03:21:10;;;;;;;0.25;0.17;;;16.10;99.90;;;;;;5129627;28;20039;-67
2023/09/07 03:23:36;;;;;;;0.30;0.15;;;16.10;99.90;;;;;;5110644;28;20069;-67
2023/09/07 03:26:01;;;;;;;0.50;0.08;;;16.10;99.90;;;;;;5125497;28;20118;-68
2023/09/07 03:28:27;;;;;;;0.50;0.15;;;16.10;99.90;;;;;;5109266;28;20122;-67
2023/09/07 03:30:56;;;;;;;0.40;0.20;;;16.00;99.90;;;;;;5128764;28;20056;-67
2023/09/07 03:33:22;;;;;;;0.32;0.17;;;15.90;99.90;;;;;;5129103;28;20038;-67
2023/09/07 03:35:47;;;;;;;1.17;0.17;;;15.90;99.90;;;;;;5108357;28;20130;-68
2023/09/07 03:38:13;;;;;;;0.20;0.10;;;15.90;99.90;;;;;;5109234;28;20130;-68
2023/09/07 03:40:39;;;;;;;0.73;0.22;;;15.80;99.90;;;;;;5128767;28;20043;-69
2023/09/07 03:43:05;;;;;;;0.60;0.10;;;15.80;99.90;;;;;;5111642;28;20041;-69
2023/09/07 03:45:30;;;;;;;1.17;0.20;;;15.80;99.90;;;;;;5110632;28;20658;-68
2023/09/07 03:47:56;;;;;;;0.20;0.03;;;15.80;99.90;;;;;;5111889;28;20035;-69
2023/09/07 03:50:22;;;;;;;1.27;0.40;;;15.80;99.90;;;;;;5130003;27;20039;-68
2023/09/07 03:52:48;;;;;;;0.57;0.15;;;15.80;99.90;;;;;;5113293;27;20285;-68
2023/09/07 03:55:14;;;;;;;0.30;0.10;;;15.70;99.90;;;;;;5129802;27;20039;-69
2023/09/07 03:57:40;;;;;;;0.52;0.20;;;15.70;99.90;;;;;;5112253;27;20078;-69
2023/09/07 04:00:08;;;;;;;0.20;0.10;;;15.80;99.90;;;;;;5112576;27;20468;-68
2023/09/07 04:02:34;;;;;;;0.43;0.10;;;15.80;99.90;;;;;;5113404;27;20069;-68
2023/09/07 04:05:03;;;;;;;0.35;0.20;;;15.80;99.90;;;;;;5095864;27;20039;-68
2023/09/07 04:07:28;;;;;;;0.50;0.28;;;15.90;99.90;;;;;;5132734;27;20661;-68
2023/09/07 04:09:54;;;;;;;2.25;0.30;;;15.90;99.90;;;;;;5114494;27;20038;-68
2023/09/07 04:12:20;;;;;;;0.47;0.10;;;15.90;99.90;;;;;;5114244;27;20509;-68
2023/09/07 04:14:45;;;;;;;0.30;0.10;;;15.90;99.90;;;;;;5132800;27;20446;-68
2023/09/07 04:17:11;;;;;;;0.52;0.15;;;15.90;99.90;;;;;;5115447;27;20077;-68
2023/09/07 04:19:37;;;;;;;0.60;0.22;;;15.90;99.90;;;;;;5128374;27;20079;-69
2023/09/07 04:22:03;;;;;;;2.45;0.40;;;15.90;99.90;;;;;;5131113;27;20035;-68
2023/09/07 04:24:29;;;;;;;1.55;0.25;;;16.00;99.90;;;;;;5129874;27;20054;-68
2023/09/07 04:27:01;;;;;;;0.28;0.10;;;16.00;99.90;;;;;;5132482;27;20039;-68
2023/09/07 04:29:27;;;;;;;0.45;0.20;;;16.00;99.90;;;;;;5113065;27;20062;-68
2023/09/07 04:31:53;;;;;;;0.77;0.10;;;16.00;99.90;;;;;;5114202;27;20039;-68
2023/09/07 04:34:21;;;;;;;0.73;0.10;;;16.00;99.90;;;;;;5111649;27;20074;-68
2023/09/07 04:36:46;;;;;;;0.22;0.13;;;16.00;99.90;;;;;;5136911;27;20514;-68
2023/09/07 04:39:14;;;;;;;0.70;0.17;;;16.10;99.90;;;;;;5096485;27;20043;-68
2023/09/07 04:41:40;;;;;;;0.65;0.30;;;16.10;99.90;;;;;;5128871;27;20035;-68
2023/09/07 04:44:06;;;;;;;0.88;0.50;;;16.00;99.90;;;;;;5111182;27;20070;-68
2023/09/07 04:46:32;;;;;;;0.43;0.15;;;16.10;99.90;;;;;;5130797;27;20043;-68
2023/09/07 04:48:57;;;;;;;0.38;0.10;;;16.00;99.90;;;;;;5088542;27;20160;-68
2023/09/07 04:51:25;;;;;;;0.40;0.20;;;16.00;99.90;;;;;;5109848;27;20487;-68
2023/09/07 04:53:51;;;;;;;0.70;0.38;;;16.10;99.90;;;;;;5112558;27;20038;-68
2023/09/07 04:56:17;;;;;;;0.32;0.20;;;16.00;99.90;;;;;;5093061;27;20519;-68
2023/09/07 04:58:43;;;;;;;0.28;0.15;;;16.00;99.90;;;;;;5128783;27;20043;-68
2023/09/07 05:01:10;;;;;;;0.22;0.10;;;16.00;99.90;;;;;;5111247;27;20043;-68
2023/09/07 05:03:37;;;;;;;0.30;0.15;;;16.00;99.90;;;;;;5130167;27;20043;-68
2023/09/07 05:06:04;;;;;;;2.50;0.70;;;15.90;99.90;;;;;;5113884;27;20447;-68
2023/09/07 05:08:30;;;;;;;0.20;0.20;;;15.90;99.90;;;;;;5110067;27;20047;-68
2023/09/07 05:10:58;;;;;;;1.00;0.30;;;16.00;99.90;;;;;;5112742;27;20051;-68
2023/09/07 05:13:25;;;;;;;0.73;0.20;;;15.90;99.90;;;;;;5129381;27;20141;-68
2023/09/07 05:15:52;;;;;;;0.63;0.30;;;16.00;99.90;;;;;;5113559;27;20402;-68
2023/09/07 05:18:19;;;;;;;0.75;0.40;;;16.00;99.90;;;;;;5127637;27;20459;-68
2023/09/07 05:20:45;;;;;;;0.25;0.17;;;16.00;99.90;;;;;;5109952;27;20409;-68
2023/09/07 05:23:15;;;;;;;0.38;0.20;;;16.00;99.90;;;;;;5132460;27;20347;-69
2023/09/07 05:25:52;;;;;;;2.33;0.60;;;16.00;99.90;;;;;;5131089;27;20031;-68
2023/09/07 05:28:18;;;;;;;4.78;0.73;;;16.00;99.90;;;;;;5113498;27;20047;-68
2023/09/07 05:30:44;;;;;;;0.47;0.30;;;16.00;99.90;;;;;;5108865;27;20366;-68
2023/09/07 05:33:10;;;;;;;0.32;0.20;;;16.10;99.90;;;;;;5112847;27;20116;-68
2023/09/07 05:35:37;;;;;;;1.70;0.40;;;16.10;99.90;;;;;;5109706;27;20034;-68
2023/09/07 05:38:04;;;;;;;3.40;0.57;;;16.20;99.90;;;;;;5108192;27;20050;-68
2023/09/07 05:40:33;;;;;;;0.52;0.32;;;16.20;99.90;;;;;;5110639;27;20140;-68
2023/09/07 05:42:59;;;;;;;1.73;0.55;;;16.30;99.90;;;;;;5111859;27;20043;-68
2023/09/07 05:45:25;;;;;;;1.00;0.47;;;16.30;99.90;;;;;;5094128;27;20594;-68
2023/09/07 05:47:51;;;;;;;1.55;0.80;;;16.40;99.90;;;;;;5111650;27;20134;-69
2023/09/07 05:50:16;;;;;;;0.65;0.25;;;16.50;99.90;;;;;;5108495;27;20110;-68
2023/09/07 05:52:42;;;;;;;0.65;0.20;;;16.60;99.90;;;;;;5113315;27;20084;-68
2023/09/07 05:55:08;;;;;;;0.70;0.25;;;16.70;99.90;;;;;;5126736;27;20046;-68
2023/09/07 05:57:34;;;;;;;0.70;0.50;;;16.80;99.90;;;;;;5111317;27;20319;-68
2023/09/07 05:59:59;;;;;;;1.00;0.20;;;16.90;99.90;;;;;;5111043;27;20050;-68
2023/09/07 06:02:25;;;;;;;1.08;0.25;;;17.00;99.90;;;;;;5111690;27;20070;-68
2023/09/07 06:04:51;;;;;;;0.30;0.10;;;17.10;99.90;;;;;;5110713;27;20031;-68
2023/09/07 06:07:16;;;;;;;0.40;0.20;;;17.30;99.90;;;;;;5129474;27;20456;-68
2023/09/07 06:09:42;;;;;;;0.38;0.30;;;17.40;99.90;;;;;;5131107;27;20463;-68
2023/09/07 06:12:08;;;;;;;0.75;0.30;;;17.50;99.90;;;;;;5110389;27;20043;-69
2023/09/07 06:14:34;;;;;;;0.80;0.40;;;17.60;99.90;;;;;;5109028;27;20073;-69
2023/09/07 06:16:59;;;;;;;1.73;0.40;;;17.70;99.90;;;;;;5110003;27;20043;-68
2023/09/07 06:19:25;;;;;;;0.40;0.20;;;17.80;99.90;;;;;;5110205;27;20050;-68
2023/09/07 06:21:51;;;;;;;1.13;0.55;;;17.90;99.90;;;;;;5111570;27;20042;-68
2023/09/07 06:24:16;;;;;;;0.73;0.35;;;18.00;99.90;;;;;;5127789;27;20050;-68
2023/09/07 06:26:44;;;;;;;0.50;0.30;;;18.20;99.90;;;;;;5130620;27;20031;-68
2023/09/07 06:29:10;;;;;;;0.75;0.20;;;18.30;99.90;;;;;;5111589;27;20031;-68
2023/09/07 06:31:35;;;;;;;0.10;0.10;;;18.30;99.90;;;;;;5110190;27;20091;-68
2023/09/07 06:34:02;;;;;;;1.17;0.17;;;18.50;99.90;;;;;;5111178;27;20122;-68
2023/09/07 06:36:30;;;;;;;0.20;0.13;;;18.60;99.90;;;;;;5111717;27;20451;-68
2023/09/07 06:38:56;;;;;;;0.55;0.35;;;18.70;99.90;;;;;;5110392;27;20064;-68
2023/09/07 06:41:21;;;;;;;0.40;0.20;;;18.80;99.90;;;;;;5130535;27;20047;-68
2023/09/07 06:43:47;;;;;;;0.82;0.40;;;18.90;99.90;;;;;;5129050;27;20039;-65
2023/09/07 06:46:13;;;;;;;1.58;0.55;;;19.00;99.90;;;;;;5126417;27;20055;-64
2023/09/07 06:48:39;;;;;;;1.63;0.38;;;19.10;99.90;;;;;;5127474;27;20547;-69
2023/09/07 06:51:05;;;;;;;1.33;0.55;;;19.20;99.90;;;;;;5107629;27;20044;-68
2023/09/07 06:53:32;;;;;;;1.00;0.32;;;19.30;99.90;;;;;;5127437;27;20039;-69
2023/09/07 06:56:01;;;;;;;0.75;0.20;;;19.40;99.90;;;;;;5107539;27;20058;-68
2023/09/07 06:58:28;;;;;;;0.20;0.10;;;19.60;99.90;;;;;;5106692;28;20047;-68
2023/09/07 07:00:57;;;;;;;0.38;0.20;;;19.70;99.90;;;;;;5128368;27;20406;-68
2023/09/07 07:03:26;;;;;;;0.73;0.30;;;19.80;99.90;;;;;;5110133;27;20095;-69
2023/09/07 07:05:52;;;;;;;0.20;0.15;;;19.90;99.90;;;;;;5107840;27;20166;-69
2023/09/07 07:08:17;;;;;;;0.63;0.50;;;20.00;99.90;;;;;;5110669;28;20199;-68
2023/09/07 07:10:43;;;;;;;1.00;0.40;;;20.10;99.90;;;;;;5089320;27;20050;-69
2023/09/07 07:13:09;;;;;;;0.50;0.25;;;20.30;99.90;;;;;;5107284;28;20035;-68
2023/09/07 07:15:35;;;;;;;0.93;0.35;;;20.40;99.90;;;;;;5109030;28;20414;-69
2023/09/07 07:18:05;;;;;;;0.68;0.40;;;20.50;99.90;;;;;;5109358;27;20047;-68
2023/09/07 07:20:31;;;;;;;0.68;0.50;;;20.60;99.90;;;;;;5128885;28;20054;-68
2023/09/07 07:22:57;;;;;;;0.95;0.43;;;20.70;99.90;;;;;;5126170;27;20035;-68
2023/09/07 07:25:23;;;;;;;0.88;0.30;;;20.70;99.90;;;;;;5126868;28;20452;-68
2023/09/07 07:27:48;;;;;;;0.30;0.30;;;20.80;99.90;;;;;;5111022;28;20055;-68
2023/09/07 07:30:14;;;;;;;1.33;0.60;;;21.00;99.90;;;;;;5092197;28;20039;-68
2023/09/07 07:32:40;;;;;;;0.93;0.52;;;21.10;99.90;;;;;;5102716;28;20034;-69
2023/09/07 07:35:06;;;;;;;0.35;0.17;;;21.20;99.90;;;;;;5128472;28;20082;-69
2023/09/07 07:37:32;;;;;;;0.30;0.15;;;21.30;99.90;;;;;;5110460;28;20031;-69
2023/09/07 07:39:58;;;;;;;0.73;0.20;;;21.50;99.90;;;;;;5110572;28;20539;-69
2023/09/07 07:42:23;;;;;;;0.35;0.20;;;21.70;99.90;;;;;;5110002;28;20078;-69
2023/09/07 07:44:49;;;;;;;3.83;0.38;;;21.70;99.90;;;;;;5109601;28;20054;-69
2023/09/07 07:47:15;;;;;;;0.68;0.40;;;21.90;99.90;;;;;;5108331;28;20100;-69
2023/09/07 07:49:40;;;;;;;1.17;0.50;;;22.00;99.90;;;;;;5125100;28;20114;-69
2023/09/07 07:52:06;;;;;;;0.57;0.38;;;22.20;99.90;;;;;;5122589;28;20344;-69
2023/09/07 07:54:33;;;;;;;0.40;0.20;;;22.30;99.90;;;;;;5110895;28;20051;-69
2023/09/07 07:56:59;;;;;;;0.70;0.43;;;22.40;99.90;;;;;;5120225;28;20043;-69
2023/09/07 07:59:25;;;;;;;0.20;0.17;;;22.70;99.90;;;;;;5099680;28;20057;-69
2023/09/07 08:01:50;;;;;;;0.75;0.35;;;23.00;99.90;;;;;;5121312;28;20047;-69
2023/09/07 08:04:16;;;;;;;0.82;0.22;;;23.20;99.90;;;;;;5099620;28;20101;-69
2023/09/07 08:06:42;;;;;;;0.65;0.38;;;23.70;99.90;;;;;;5101301;28;20043;-69
2023/09/07 08:09:08;;;;;;;4.05;0.47;;;24.20;99.90;;;;;;5102726;28;20181;-69
2023/09/07 08:11:34;;;;;;;0.90;0.30;;;25.00;99.90;;;;;;5119269;28;20050;-69
2023/09/07 08:13:59;;;;;;;0.65;0.35;;;26.00;99.90;;;;;;5120168;28;20483;-69
2023/09/07 08:16:25;;;;;;;3.95;0.65;;;26.70;99.90;;;;;;5099699;28;20096;-69
2023/09/07 08:18:51;;;;;;;0.55;0.38;;;27.20;99.90;;;;;;5118960;28;20027;-69
2023/09/07 08:21:17;;;;;;;0.40;0.20;;;27.80;99.90;;;;;;5118671;28;20046;-70
2023/09/07 08:23:43;;;;;;;2.97;0.90;;;28.20;99.90;;;;;;5097698;28;20047;-69
2023/09/07 08:26:09;;;;;;;0.80;0.20;;;28.60;96.40;;;;;;5119852;28;20055;-69
2023/09/07 08:28:35;;;;;;;0.50;0.20;;;28.70;99.90;;;;;;5129014;28;20169;-69
2023/09/07 08:31:01;;;;;;;0.70;0.30;;;28.70;96.40;;;;;;5126186;28;20050;-69
2023/09/07 08:33:39;;;;;;;0.90;0.50;;;28.90;96.90;;;;;;5128228;28;20556;-70
2023/09/07 08:36:05;;;;;;;0.50;0.17;;;29.30;85.10;;;;;;5111470;27;20092;-70
2023/09/07 08:38:31;;;;;;;0.20;0.10;;;29.50;94.20;;;;;;5112273;27;20515;-69
2023/09/07 08:41:05;;;;;;;0.52;0.22;;;29.70;91.70;;;;;;5132972;27;20035;-70
2023/09/07 08:43:39;;;;;;;0.55;0.20;;;30.00;92.10;;;;;;5127485;27;20032;-70
2023/09/07 08:46:14;;;;;;;0.32;0.30;;;30.30;84.20;;;;;;5107045;27;20138;-70
2023/09/07 08:48:40;;;;;;;0.40;0.10;;;30.40;86.80;;;;;;5111545;27;20035;-70
2023/09/07 08:51:07;;;;;;;0.30;0.25;;;30.50;80.30;;;;;;5131637;27;20043;-69
2023/09/07 08:53:34;;;;;;;0.70;0.32;;;30.60;81.40;;;;;;5131940;27;20059;-69
2023/09/07 08:56:02;;;;;;;0.40;0.28;;;30.50;78.90;;;;;;5114667;27;20078;-69
2023/09/07 08:58:27;;;;;;;1.35;0.43;;;30.30;73.10;;;;;;5113547;27;20049;-69
2023/09/07 09:00:56;;;;;;;2.30;0.20;;;30.30;73.30;;;;;;5132563;27;20043;-69
2023/09/07 09:03:22;;;;;;;0.45;0.30;;;30.50;77.60;;;;;;5132063;27;20133;-69
2023/09/07 09:05:51;;;;;;;0.30;0.15;;;30.50;75.60;;;;;;5132394;27;20078;-69
2023/09/07 09:08:24;;;;;;;0.40;0.20;;;30.70;73.10;;;;;;5131969;27;20088;-69
2023/09/07 09:11:02;;;;;;;0.70;0.10;;;30.60;68.40;;;;;;5114195;27;20441;-68
2023/09/07 09:13:30;;;;;;;0.82;0.20;;;30.50;70.70;;;;;;5129537;27;20070;-69
2023/09/07 09:15:56;;;;;;;0.60;0.30;;;30.50;66.90;;;;;;5132894;27;20043;-69
2023/09/07 09:18:21;;;;;;;0.35;0.20;;;30.40;70.70;;;;;;5114494;27;20445;-69
2023/09/07 09:20:48;;;;;;;0.75;0.22;;;30.60;69.80;;;;;;5113992;27;20410;-69
2023/09/07 09:23:15;;;;;;;0.52;0.30;;;31.00;68.70;;;;;;5132994;27;20035;-68
2023/09/07 09:25:41;;;;;;;0.20;0.13;;;31.10;72.60;;;;;;5133484;27;20039;-69
2023/09/07 09:28:10;;;;;;;0.75;0.28;;;31.10;68.70;;;;;;5132967;27;20126;-69
2023/09/07 09:30:36;;;;;;;0.47;0.20;;;31.30;70.40;;;;;;5132409;27;20070;-70
2023/09/07 09:33:05;;;;;;;1.02;0.45;;;31.30;68.90;;;;;;5130784;27;20050;-69
2023/09/07 09:35:31;;;;;;;0.50;0.25;;;31.30;68.90;;;;;;5129713;27;20043;-69
2023/09/07 09:38:04;;;;;;;0.55;0.10;;;31.40;70.00;;;;;;5129840;27;20335;-69
2023/09/07 09:40:36;;;;;;;0.88;0.20;;;31.60;69.10;;;;;;5132132;27;20045;-69
2023/09/07 09:43:05;;;;;;;0.23;0.10;;;31.60;67.30;;;;;;5130131;27;20118;-69
2023/09/07 09:45:33;;;;;;;0.25;0.13;;;31.70;64.30;;;;;;5112879;27;20308;-69
2023/09/07 09:48:01;;;;;;;0.68;0.20;;;32.00;68.70;;;;;;5130365;27;20395;-69
2023/09/07 09:50:30;;;;;;;0.38;0.10;;;32.00;67.10;;;;;;5129104;27;20433;-69
2023/09/07 09:52:58;;;;;;;0.93;0.30;;;32.10;68.40;;;;;;5131607;27;20050;-69
2023/09/07 09:55:24;;;;;;;0.65;0.35;;;32.20;67.20;;;;;;5132698;27;20043;-68
2023/09/07 09:57:50;;;;;;;0.35;0.30;;;32.20;61.60;;;;;;5128267;27;20127;-68
2023/09/07 10:02:45;;;;;;;0.30;0.10;;;32.20;66.00;;;;;;5129466;27;20031;-69
2023/09/07 10:05:13;;;;;;;0.60;0.28;;;32.00;62.60;;;;;;5111535;27;20129;-69
2023/09/07 10:07:44;;;;;;;0.63;0.25;;;32.00;65.20;;;;;;5112396;27;20070;-69
2023/09/07 10:10:14;;;;;;;0.52;0.15;;;31.80;61.90;;;;;;5112006;27;20398;-70
2023/09/07 10:12:44;;;;;;;0.57;0.20;;;31.60;61.10;;;;;;5105458;27;20165;-69
2023/09/07 10:15:21;;;;;;;0.30;0.10;;;31.60;60.60;;;;;;5130260;27;20035;-70
2023/09/07 10:17:50;;;;;;;0.60;0.20;;;31.60;63.40;;;;;;5112229;27;20049;-70
2023/09/07 10:20:17;;;;;;;0.20;0.10;;;31.80;64.60;;;;;;5111086;27;20420;-70
2023/09/07 10:22:43;;;;;;;0.28;0.17;;;32.00;63.40;;;;;;5131380;27;20118;-70
2023/09/07 10:25:30;;;;;;;0.30;0.15;;;31.90;61.40;;;;;;5111396;27;20074;-69
2023/09/07 10:27:56;;;;;;;1.77;0.30;;;31.80;62.20;;;;;;5129965;27;20435;-70
2023/09/07 10:30:24;;;;;;;0.30;0.20;;;32.20;66.20;;;;;;5129740;27;20126;-71
2023/09/07 10:32:49;;;;;;;0.60;0.30;;;32.20;62.60;;;;;;5130407;27;20035;-70
2023/09/07 10:35:16;;;;;;;0.10;0.10;;;32.00;61.30;;;;;;5110331;27;20119;-70
2023/09/07 10:37:48;;;;;;;0.30;0.20;;;32.00;63.00;;;;;;5129929;27;20035;-69
2023/09/07 10:40:24;;;;;;;0.73;0.30;;;32.20;63.70;;;;;;5132037;27;20484;-70
2023/09/07 10:43:01;;;;;;;0.80;0.20;;;32.20;60.20;;;;;;5128034;27;20035;-69
2023/09/07 10:45:26;;;;;;;0.20;0.10;;;31.90;60.60;;;;;;5123746;27;20055;-69
2023/09/07 10:47:52;;;;;;;0.68;0.30;;;31.90;62.50;;;;;;5123087;27;20047;-69
2023/09/07 10:50:18;;;;;;;0.60;0.30;;;31.80;60.30;;;;;;5127910;27;20402;-69
2023/09/07 10:52:44;;;;;;;0.10;0.10;;;31.60;58.70;;;;;;5126564;27;20198;-69
2023/09/07 10:55:11;;;;;;;1.17;0.10;;;31.60;60.10;;;;;;5120842;27;20058;-70
2023/09/07 10:57:45;;;;;;;0.20;0.10;;;31.80;58.80;;;;;;5124812;27;20095;-70
2023/09/07 11:00:14;;;;;;;0.40;0.30;;;32.00;57.20;;;;;;5128233;27;20875;-70
2023/09/07 11:02:41;;;;;;;1.55;0.20;;;32.10;61.40;;;;;;5123848;27;20031;-69
2023/09/07 11:05:07;;;;;;;0.30;0.20;;;32.40;61.30;;;;;;5125469;27;20051;-70
2023/09/07 11:07:34;;;;;;;1.67;0.20;;;32.50;60.00;;;;;;5107645;27;20039;-69
2023/09/07 11:10:00;;;;;;;0.65;0.25;;;32.50;57.00;;;;;;5129342;27;20070;-70
2023/09/07 11:12:26;;;;;;;1.15;0.40;;;32.60;59.10;;;;;;5127774;27;20039;-69
2023/09/07 11:14:53;;;;;;;0.40;0.30;;;32.60;56.30;;;;;;5129774;27;20035;-70
2023/09/07 11:17:18;;;;;;;0.73;0.20;;;32.40;56.90;;;;;;5128706;27;20100;-70
2023/09/07 11:19:51;;;;;;;0.50;0.20;;;32.20;56.80;;;;;;5132681;27;20039;-70
2023/09/07 11:22:16;;;;;;;0.55;0.30;;;32.40;57.10;;;;;;5129462;28;20483;-69
2023/09/07 11:24:42;;;;;;;0.65;0.10;;;32.30;58.10;;;;;;5108055;28;20050;-69
2023/09/07 11:27:09;;;;;;;0.90;0.28;;;32.40;56.60;;;;;;5128942;28;20043;-69
2023/09/07 11:29:34;;;;;;;0.50;0.25;;;32.40;58.10;;;;;;5127307;28;20036;-69
2023/09/07 11:32:07;;;;;;;0.88;0.10;;;32.90;57.20;;;;;;5127625;28;20039;-69
2023/09/07 11:34:33;;;;;;;;;;;33.30;56.30;;;;;;5128020;28;20043;-69
2023/09/07 11:36:58;;;;;;;0.82;0.28;;;33.40;54.70;;;;;;5128947;28;19947;-68
2023/09/07 11:39:24;;;;;;;0.32;0.10;;;33.50;56.60;;;;;;5121862;28;20079;-69
2023/09/07 11:41:50;;;;;;;0.50;0.20;;;33.50;56.60;;;;;;5127593;28;20043;-69
2023/09/07 11:44:15;;;;;;;1.98;0.30;;;33.50;56.40;;;;;;5127189;28;20460;-67
2023/09/07 11:46:41;;;;;;;1.13;0.35;;;33.50;54.00;;;;;;5130073;28;20046;-67
2023/09/07 11:49:08;;;;;;;0.50;0.28;;;33.50;55.60;;;;;;5107045;28;20409;-68
2023/09/07 11:51:34;;;;;;;0.50;0.20;;;33.70;54.90;;;;;;5127068;28;20119;-69
2023/09/07 11:54:02;;;;;;;0.60;0.20;;;33.60;55.60;;;;;;5126577;28;20546;-68
2023/09/07 11:56:28;;;;;;;0.43;0.30;;;33.60;53.80;;;;;;5127694;28;20039;-67
2023/09/07 11:58:55;;;;;;;0.60;0.10;;;33.70;54.00;;;;;;5127451;28;20038;-67
2023/09/07 12:01:21;;;;;;;0.50;0.28;;;33.50;52.50;;;;;;5125781;28;20440;-67
2023/09/07 12:03:47;;;;;;;0.43;0.25;;;33.30;53.10;;;;;;5126522;28;20038;-66
2023/09/07 12:06:13;;;;;;;0.35;0.20;;;33.20;52.70;;;;;;5109274;28;20046;-66
2023/09/07 12:08:43;;;;;;;0.30;0.10;;;33.30;52.90;;;;;;5125324;28;20486;-66
2023/09/07 12:11:08;;;;;;;0.70;0.30;;;33.60;51.30;;;;;;5128308;27;20110;-66
2023/09/07 12:13:34;;;;;;;0.77;0.35;;;33.60;50.50;;;;;;5131276;27;20122;-67
2023/09/07 12:16:02;;;;;;;0.20;0.10;;;33.80;51.50;;;;;;5132587;27;20496;-68
2023/09/07 12:18:28;;;;;;;0.25;0.10;;;34.00;52.50;;;;;;5131691;27;20380;-68
2023/09/07 12:20:54;;;;;;;0.25;0.10;;;34.10;51.60;;;;;;5131590;27;20126;-68
2023/09/07 12:23:19;;;;;;;0.65;0.20;;;34.50;52.00;;;;;;5131064;27;20039;-68
2023/09/07 12:25:50;;;;;;;0.47;0.17;;;34.70;50.60;;;;;;5130706;27;20385;-68
2023/09/07 12:28:16;;;;;;;0.68;0.20;;;34.90;48.50;;;;;;5089254;27;20047;-68
2023/09/07 12:30:44;;;;;;;0.77;0.13;;;34.90;46.70;;;;;;5130030;27;20035;-68
2023/09/07 12:33:10;;;;;;;0.57;0.20;;;34.80;47.20;;;;;;5130233;27;20043;-69
2023/09/07 12:35:36;;;;;;;0.30;0.15;;;34.80;49.50;;;;;;5129002;27;20035;-69
2023/09/07 12:38:03;;;;;;;0.45;0.30;;;34.90;49.30;;;;;;5113180;27;20039;-69
2023/09/07 12:40:28;;;;;;;0.32;0.10;;;35.00;49.40;;;;;;5127383;27;20118;-68
2023/09/07 12:42:54;;;;;;;0.80;0.25;;;35.20;50.50;;;;;;5131452;27;20115;-69
2023/09/07 12:45:20;;;;;;;1.08;0.20;;;35.40;49.10;;;;;;5129890;27;20059;-69
2023/09/07 12:47:46;;;;;;;0.22;0.10;;;35.30;48.40;;;;;;5131081;27;20113;-68